Time;durP1;ratioP1;P1;durP2;ratioP2;P2;SDS_P1;SDS_P2;PMS_P1;PMS_P2;Temp;Humidity;BMP_temperature;BMP_pressure;BME280_temperature;BME280_humidity;BME280_pressure;Samples;Min_cycle;Max_cycle;Signal;HPM_P1;HPM_P2
2023/02/19 00:01:00;;;;;;;7.80;7.20;;;10.50;99.90;;;;;;5051304;28;20552;-64
2023/02/19 00:03:26;;;;;;;7.57;6.97;;;10.50;99.90;;;;;;5051560;28;20178;-64
2023/02/19 00:05:52;;;;;;;7.30;6.80;;;10.40;99.90;;;;;;5051570;28;20228;-66
2023/02/19 00:08:18;;;;;;;7.70;7.20;;;10.50;99.90;;;;;;5051646;28;20272;-66
2023/02/19 00:10:43;;;;;;;7.80;7.10;;;10.50;99.90;;;;;;5050169;28;20224;-66
2023/02/19 00:13:09;;;;;;;7.00;6.57;;;10.40;99.90;;;;;;5051537;28;20224;-66
2023/02/19 00:15:35;;;;;;;7.00;6.50;;;10.40;99.90;;;;;;5051760;28;20194;-67
2023/02/19 00:18:00;;;;;;;7.37;6.87;;;10.40;99.90;;;;;;5051255;28;20260;-64
2023/02/19 00:20:26;;;;;;;8.37;7.87;;;10.30;99.90;;;;;;5050879;28;20174;-64
2023/02/19 00:22:51;;;;;;;7.30;6.80;;;10.30;99.90;;;;;;5051198;28;20171;-64
2023/02/19 00:25:17;;;;;;;7.67;7.27;;;10.30;99.90;;;;;;5050971;28;20195;-64
2023/02/19 00:27:42;;;;;;;7.73;7.23;;;10.30;99.90;;;;;;5051048;28;20190;-64
2023/02/19 00:30:09;;;;;;;7.10;6.70;;;10.30;99.90;;;;;;5050454;28;20171;-64
2023/02/19 00:32:34;;;;;;;7.80;7.20;;;10.30;99.90;;;;;;5052279;28;20167;-64
2023/02/19 00:35:00;;;;;;;7.07;6.67;;;10.30;99.90;;;;;;5054875;28;20253;-64
2023/02/19 00:37:25;;;;;;;9.33;7.07;;;10.30;99.90;;;;;;5054896;28;20681;-64
2023/02/19 00:39:51;;;;;;;8.07;7.40;;;10.30;99.90;;;;;;5054506;28;20229;-64
2023/02/19 00:42:16;;;;;;;7.47;6.87;;;10.30;99.90;;;;;;5054575;28;20545;-64
2023/02/19 00:44:42;;;;;;;9.10;8.10;;;10.30;99.90;;;;;;5054727;28;20181;-64
2023/02/19 00:47:07;;;;;;;8.20;7.50;;;10.30;99.90;;;;;;5053804;28;20194;-64
2023/02/19 00:49:33;;;;;;;8.80;7.93;;;10.40;99.90;;;;;;5054465;28;20167;-65
2023/02/19 00:51:59;;;;;;;7.77;7.17;;;10.40;99.90;;;;;;5054449;28;20167;-64
2023/02/19 00:54:24;;;;;;;8.87;8.07;;;10.30;99.90;;;;;;5054831;28;20171;-64
2023/02/19 00:56:50;;;;;;;8.00;7.30;;;10.30;99.90;;;;;;5054542;28;20313;-64
2023/02/19 00:59:16;;;;;;;7.53;6.93;;;10.30;99.90;;;;;;5052896;28;20900;-64
2023/02/19 01:01:43;;;;;;;7.53;6.93;;;10.40;99.90;;;;;;5054458;28;20254;-64
2023/02/19 01:04:09;;;;;;;7.30;6.77;;;10.40;99.90;;;;;;5054162;28;20206;-64
2023/02/19 01:06:35;;;;;;;6.70;6.30;;;10.40;99.90;;;;;;5054309;28;20656;-64
2023/02/19 01:09:01;;;;;;;6.67;6.17;;;10.40;99.90;;;;;;5054316;28;20194;-64
2023/02/19 01:11:26;;;;;;;7.33;6.83;;;10.50;99.90;;;;;;5054022;28;20195;-64
2023/02/19 01:13:56;;;;;;;6.67;6.27;;;10.40;99.90;;;;;;5054111;28;20690;-64
2023/02/19 01:16:23;;;;;;;7.57;7.07;;;10.50;99.90;;;;;;5054349;28;20733;-64
2023/02/19 01:18:50;;;;;;;6.60;6.20;;;10.50;99.90;;;;;;5054159;28;20687;-64
2023/02/19 01:21:20;;;;;;;8.73;8.23;;;10.50;99.90;;;;;;5053653;28;20308;-65
2023/02/19 01:23:46;;;;;;;7.87;7.23;;;10.50;99.90;;;;;;5054313;28;20270;-64
2023/02/19 01:26:17;;;;;;;9.30;8.60;;;10.50;99.90;;;;;;5053724;28;20214;-64
2023/02/19 01:28:43;;;;;;;8.07;7.47;;;10.50;99.90;;;;;;5054141;28;20206;-64
2023/02/19 01:31:14;;;;;;;8.27;7.03;;;10.50;99.90;;;;;;5053700;28;20167;-64
2023/02/19 01:33:43;;;;;;;7.47;6.97;;;10.60;99.90;;;;;;5054049;28;20625;-64
2023/02/19 01:36:09;;;;;;;8.27;7.57;;;10.60;99.90;;;;;;5053625;28;20174;-64
2023/02/19 01:38:35;;;;;;;7.93;7.33;;;10.60;99.90;;;;;;5053737;28;20191;-64
2023/02/19 01:41:04;;;;;;;8.43;7.73;;;10.70;99.90;;;;;;5053344;28;20678;-64
2023/02/19 01:43:32;;;;;;;7.80;7.20;;;10.70;99.90;;;;;;5053145;28;20207;-64
2023/02/19 01:45:58;;;;;;;8.37;7.63;;;10.70;99.90;;;;;;5053021;28;20612;-64
2023/02/19 01:48:36;;;;;;;7.90;7.10;;;10.70;99.90;;;;;;5076811;22;20690;-65
2023/02/19 01:51:09;;;;;;;7.80;7.30;;;10.70;99.90;;;;;;5053347;28;20651;-64
2023/02/19 01:53:43;;;;;;;7.50;6.83;;;10.70;99.90;;;;;;5053757;28;20205;-62
2023/02/19 01:56:10;;;;;;;7.63;7.07;;;10.70;99.90;;;;;;5053344;28;20167;-64
2023/02/19 01:58:37;;;;;;;6.73;6.23;;;10.70;99.90;;;;;;5053446;28;20243;-62
2023/02/19 02:01:07;;;;;;;8.43;7.73;;;10.70;99.90;;;;;;5053232;28;20167;-63
2023/02/19 02:03:35;;;;;;;7.57;6.90;;;10.70;99.90;;;;;;5053418;28;20175;-63
2023/02/19 02:06:03;;;;;;;10.43;8.07;;;10.70;99.90;;;;;;5053311;28;20205;-63
2023/02/19 02:11:15;;;;;;;8.17;7.57;;;10.60;99.90;;;;;;5052807;28;20190;-64
2023/02/19 02:13:41;;;;;;;9.27;8.33;;;10.50;99.90;;;;;;5053306;28;20254;-63
2023/02/19 02:16:28;;;;;;;7.87;7.27;;;10.50;99.90;;;;;;5052906;28;20648;-63
2023/02/19 02:19:21;;;;;;;9.17;7.60;;;10.50;99.90;;;;;;5053039;28;20201;-63
2023/02/19 02:21:47;;;;;;;7.50;7.00;;;10.50;99.90;;;;;;5053042;28;20170;-63
2023/02/19 02:24:33;;;;;;;7.90;7.10;;;10.50;99.90;;;;;;5052844;28;20578;-63
2023/02/19 02:27:20;;;;;;;7.90;7.20;;;10.50;99.90;;;;;;5052674;28;20245;-63
2023/02/19 02:30:16;;;;;;;8.47;7.30;;;10.40;99.90;;;;;;5052629;28;20628;-63
2023/02/19 02:32:52;;;;;;;7.77;7.17;;;10.40;99.90;;;;;;5053048;28;20173;-63
2023/02/19 02:35:24;;;;;;;8.57;7.77;;;10.40;99.90;;;;;;5052815;28;20170;-63
2023/02/19 02:37:54;;;;;;;6.97;6.27;;;10.40;99.90;;;;;;5052807;28;20186;-63
2023/02/19 02:40:20;;;;;;;8.60;7.50;;;10.40;99.90;;;;;;5052319;28;20167;-63
2023/02/19 02:42:46;;;;;;;8.70;8.00;;;10.40;99.90;;;;;;5052950;28;20177;-62
2023/02/19 02:45:36;;;;;;;7.03;6.43;;;10.40;99.90;;;;;;5052437;28;20746;-62
2023/02/19 02:48:10;;;;;;;7.87;7.27;;;10.50;99.90;;;;;;5051454;28;20588;-62
2023/02/19 02:50:57;;;;;;;7.43;6.83;;;10.50;99.90;;;;;;5052261;28;20175;-62
2023/02/19 02:56:19;;;;;;;7.63;7.13;;;10.50;99.90;;;;;;5051969;28;20617;-65
2023/02/19 02:58:48;;;;;;;6.83;6.37;;;10.50;99.90;;;;;;5052286;28;20668;-63
2023/02/19 03:04:20;;;;;;;8.17;7.43;;;10.50;99.90;;;;;;5052556;28;20242;-64
2023/02/19 03:06:48;;;;;;;7.23;6.67;;;10.60;99.90;;;;;;5052173;28;20218;-63
2023/02/19 03:09:43;;;;;;;7.30;6.70;;;10.50;99.90;;;;;;5051872;28;20944;-63
2023/02/19 03:20:40;;;;;;;9.47;6.90;;;10.50;99.90;;;;;;5051944;28;20177;-63
2023/02/19 03:23:10;;;;;;;8.30;7.60;;;10.50;99.90;;;;;;5051855;28;20159;-63
2023/02/19 03:29:21;;;;;;;10.30;8.37;;;10.60;99.90;;;;;;5051695;28;20197;-64
2023/02/19 03:31:15;;;;;;;10.90;7.53;;;10.50;99.90;;;;;;5051246;28;20275;-64
2023/02/19 03:33:44;;;;;;;9.63;8.27;;;10.60;99.90;;;;;;5051690;28;20167;-64
2023/02/19 03:36:14;;;;;;;8.93;8.03;;;10.50;99.90;;;;;;5051448;28;20170;-64
2023/02/19 03:38:51;;;;;;;9.47;8.20;;;10.50;99.90;;;;;;5051679;28;20187;-64
2023/02/19 03:41:43;;;;;;;9.53;8.57;;;10.50;99.90;;;;;;5050698;28;20175;-64
2023/02/19 03:44:29;;;;;;;11.87;8.47;;;10.50;99.90;;;;;;5051402;28;20257;-64
2023/02/19 03:47:34;;;;;;;11.27;8.70;;;10.50;99.90;;;;;;5050800;28;20769;-64
2023/02/19 03:50:17;;;;;;;9.57;8.67;;;10.50;99.90;;;;;;5020417;28;20218;-64
2023/02/19 03:53:03;;;;;;;9.70;8.27;;;10.50;99.90;;;;;;5051646;28;20332;-64
2023/02/19 03:55:40;;;;;;;10.73;8.73;;;10.50;99.90;;;;;;5051518;28;20174;-64
2023/02/19 03:58:47;;;;;;;9.37;8.50;;;10.50;99.90;;;;;;5051213;28;20194;-63
2023/02/19 04:01:26;;;;;;;8.83;7.97;;;10.50;99.90;;;;;;5040003;28;20197;-64
2023/02/19 04:03:57;;;;;;;8.77;8.03;;;10.50;99.90;;;;;;5051512;28;20511;-64
2023/02/19 04:06:29;;;;;;;10.17;9.17;;;10.50;99.90;;;;;;5051179;28;20659;-64
2023/02/19 04:08:59;;;;;;;10.70;8.67;;;10.50;99.90;;;;;;5054755;28;20187;-64
2023/02/19 04:11:27;;;;;;;9.83;8.87;;;10.40;99.90;;;;;;5055211;28;20171;-64
2023/02/19 04:14:08;;;;;;;8.10;7.50;;;10.30;99.90;;;;;;5055440;28;20170;-64
2023/02/19 04:16:37;;;;;;;11.07;8.80;;;10.40;99.90;;;;;;5055318;28;20179;-64
2023/02/19 04:19:08;;;;;;;9.40;8.50;;;10.30;99.90;;;;;;5055277;28;20182;-64
2023/02/19 04:21:36;;;;;;;10.87;9.40;;;10.30;99.90;;;;;;5055307;28;20178;-65
2023/02/19 04:24:07;;;;;;;10.23;9.20;;;10.20;99.90;;;;;;5055170;28;20194;-65
2023/02/19 04:26:34;;;;;;;10.07;9.17;;;10.10;99.90;;;;;;5055176;28;20714;-65
2023/02/19 04:29:00;;;;;;;13.90;10.03;;;10.10;99.90;;;;;;5055162;28;20258;-64
2023/02/19 04:31:28;;;;;;;10.93;9.33;;;10.00;99.90;;;;;;5054732;28;20166;-64
2023/02/19 04:33:54;;;;;;;8.80;7.90;;;10.00;99.90;;;;;;5054997;28;20644;-65
2023/02/19 04:36:20;;;;;;;9.30;8.40;;;9.90;99.90;;;;;;5054891;28;20182;-64
2023/02/19 04:38:45;;;;;;;10.17;9.27;;;9.90;99.90;;;;;;5055193;28;20288;-65
2023/02/19 04:41:11;;;;;;;10.30;9.20;;;9.90;99.90;;;;;;5054180;28;20182;-64
2023/02/19 04:43:36;;;;;;;10.03;8.97;;;9.80;99.90;;;;;;5054917;28;20205;-65
2023/02/19 04:46:02;;;;;;;10.00;8.13;;;9.80;99.90;;;;;;5054580;28;20201;-64
2023/02/19 04:48:28;;;;;;;11.63;10.20;;;9.80;99.90;;;;;;5053711;28;20309;-65
2023/02/19 04:50:54;;;;;;;13.37;10.40;;;9.80;99.90;;;;;;5054429;28;20254;-64
2023/02/19 04:53:20;;;;;;;19.40;9.63;;;9.70;99.90;;;;;;5054654;28;20201;-64
2023/02/19 04:55:46;;;;;;;10.13;8.87;;;9.70;99.90;;;;;;5054676;28;20174;-64
2023/02/19 04:58:12;;;;;;;13.50;10.77;;;9.70;99.90;;;;;;5054631;28;20560;-64
2023/02/19 05:00:38;;;;;;;10.80;9.63;;;9.70;99.90;;;;;;5054253;28;20167;-64
2023/02/19 05:03:03;;;;;;;10.17;8.73;;;9.70;99.90;;;;;;5054705;28;20679;-65
2023/02/19 05:05:29;;;;;;;10.13;8.93;;;9.60;99.90;;;;;;5054335;28;20242;-64
2023/02/19 05:07:55;;;;;;;13.00;10.40;;;9.60;99.90;;;;;;5054314;28;20236;-66
2023/02/19 05:10:21;;;;;;;11.30;10.30;;;9.60;99.90;;;;;;5053904;28;20375;-63
2023/02/19 05:12:46;;;;;;;8.23;7.53;;;9.60;99.90;;;;;;5054362;28;20175;-63
2023/02/19 05:15:12;;;;;;;15.60;9.17;;;9.60;99.90;;;;;;5054148;28;20178;-63
2023/02/19 05:17:37;;;;;;;9.83;8.80;;;9.50;99.90;;;;;;5054183;28;20198;-63
2023/02/19 05:20:03;;;;;;;10.27;9.23;;;9.60;99.90;;;;;;5053560;28;20178;-62
2023/02/19 05:22:29;;;;;;;10.67;9.47;;;9.50;99.90;;;;;;5054081;28;20189;-63
2023/02/19 05:24:54;;;;;;;12.80;9.57;;;9.50;99.90;;;;;;5053969;28;20536;-63
2023/02/19 05:27:20;;;;;;;13.90;10.20;;;9.50;99.90;;;;;;5054105;28;20257;-63
2023/02/19 05:29:46;;;;;;;9.30;8.40;;;9.50;99.90;;;;;;5053743;28;20529;-63
2023/02/19 05:32:11;;;;;;;9.13;8.33;;;9.50;99.90;;;;;;5052444;28;20167;-63
2023/02/19 05:34:37;;;;;;;13.37;10.20;;;9.50;99.90;;;;;;5053906;28;20664;-63
2023/02/19 05:37:02;;;;;;;12.53;9.60;;;9.50;99.90;;;;;;5053705;28;20312;-63
2023/02/19 05:39:28;;;;;;;8.63;8.03;;;9.50;99.90;;;;;;5053573;28;20253;-63
2023/02/19 05:41:53;;;;;;;12.90;11.60;;;9.50;99.90;;;;;;5053886;28;20191;-63
2023/02/19 05:44:19;;;;;;;11.57;10.10;;;9.50;99.90;;;;;;5053465;28;20182;-63
2023/02/19 05:46:45;;;;;;;12.43;10.37;;;9.50;99.90;;;;;;5052583;28;20260;-63
2023/02/19 05:49:10;;;;;;;13.90;11.57;;;9.50;99.90;;;;;;5053366;28;20175;-63
2023/02/19 05:51:36;;;;;;;12.47;11.23;;;9.50;99.90;;;;;;5053475;28;20167;-63
2023/02/19 05:54:01;;;;;;;13.40;10.43;;;9.50;99.90;;;;;;5053546;28;20175;-63
2023/02/19 05:56:38;;;;;;;11.23;10.20;;;9.50;99.90;;;;;;5053324;28;20644;-65
2023/02/19 05:59:06;;;;;;;11.70;10.70;;;9.50;99.90;;;;;;5053281;28;20182;-63
2023/02/19 06:01:33;;;;;;;12.63;8.97;;;9.50;99.90;;;;;;5053342;28;20171;-63
2023/02/19 06:03:59;;;;;;;15.63;11.20;;;9.50;99.90;;;;;;5053380;28;20210;-63
2023/02/19 06:06:25;;;;;;;11.70;9.90;;;9.50;99.90;;;;;;5053129;28;20299;-64
2023/02/19 06:08:51;;;;;;;10.47;9.47;;;9.50;99.90;;;;;;5053240;28;20194;-63
2023/02/19 06:11:17;;;;;;;11.13;9.13;;;9.40;99.90;;;;;;5052874;28;20167;-63
2023/02/19 06:13:43;;;;;;;18.33;9.87;;;9.40;99.90;;;;;;5053115;28;20643;-63
2023/02/19 06:16:09;;;;;;;10.93;9.93;;;9.40;99.90;;;;;;5052974;28;20699;-63
2023/02/19 06:18:35;;;;;;;13.43;10.17;;;9.30;99.90;;;;;;5051776;28;20567;-63
2023/02/19 06:21:02;;;;;;;12.13;10.50;;;9.30;99.90;;;;;;5052650;28;20171;-63
2023/02/19 06:23:29;;;;;;;12.53;9.80;;;9.30;99.90;;;;;;5053504;28;20174;-63
2023/02/19 06:26:03;;;;;;;26.00;10.50;;;9.30;99.90;;;;;;5052935;28;20570;-63
2023/02/19 06:28:28;;;;;;;12.20;10.93;;;9.30;99.90;;;;;;5052885;28;20194;-63
2023/02/19 06:30:54;;;;;;;19.43;9.67;;;9.30;99.90;;;;;;5052093;28;20259;-63
2023/02/19 06:33:19;;;;;;;13.00;10.43;;;9.40;99.90;;;;;;5052834;28;20175;-63
2023/02/19 06:35:45;;;;;;;12.93;10.33;;;9.30;99.90;;;;;;5052792;28;20175;-63
2023/02/19 06:38:10;;;;;;;14.27;10.13;;;9.30;99.90;;;;;;5052564;28;20273;-63
2023/02/19 06:40:36;;;;;;;12.40;8.27;;;9.30;99.90;;;;;;5053567;28;20175;-63
2023/02/19 06:43:02;;;;;;;10.77;9.63;;;9.30;99.90;;;;;;5053315;28;20174;-63
2023/02/19 06:45:27;;;;;;;19.37;11.33;;;9.30;99.90;;;;;;5053048;28;20335;-62
2023/02/19 06:47:53;;;;;;;11.60;10.47;;;9.30;99.90;;;;;;5052084;28;20297;-63
2023/02/19 06:50:18;;;;;;;14.63;10.60;;;9.20;99.90;;;;;;5052309;28;20182;-63
2023/02/19 06:52:44;;;;;;;12.77;10.67;;;9.30;99.90;;;;;;5052772;28;20183;-63
2023/02/19 06:55:10;;;;;;;12.60;10.53;;;9.20;99.90;;;;;;5052487;28;20178;-63
2023/02/19 06:57:35;;;;;;;11.90;10.63;;;9.20;99.90;;;;;;5052653;28;20201;-63
2023/02/19 07:00:01;;;;;;;15.27;8.80;;;9.20;99.90;;;;;;5052029;28;20663;-63
2023/02/19 07:02:26;;;;;;;9.57;8.67;;;9.20;99.90;;;;;;5052323;28;20175;-63
2023/02/19 07:04:52;;;;;;;10.87;10.03;;;9.20;99.90;;;;;;5052467;28;20249;-63
2023/02/19 07:07:17;;;;;;;11.87;10.63;;;9.20;99.90;;;;;;5051968;28;20207;-63
2023/02/19 07:09:43;;;;;;;9.27;7.80;;;9.20;99.90;;;;;;5052069;28;20558;-63
2023/02/19 07:12:09;;;;;;;10.87;9.27;;;9.20;99.90;;;;;;5051830;28;20174;-63
2023/02/19 07:14:34;;;;;;;12.77;8.77;;;9.20;99.90;;;;;;5051958;28;20179;-63
2023/02/19 07:17:00;;;;;;;11.37;10.20;;;9.20;99.90;;;;;;5051963;28;20202;-63
2023/02/19 07:19:25;;;;;;;8.93;8.13;;;9.20;99.90;;;;;;5050487;28;20181;-64
2023/02/19 07:21:51;;;;;;;11.03;8.77;;;9.20;99.90;;;;;;5051880;28;20170;-63
2023/02/19 07:24:17;;;;;;;11.50;9.17;;;9.10;99.90;;;;;;5050386;28;20197;-63
2023/02/19 07:26:43;;;;;;;9.13;8.50;;;9.10;99.90;;;;;;5051639;28;20710;-63
2023/02/19 07:29:09;;;;;;;11.10;9.60;;;9.10;99.90;;;;;;5051546;28;20167;-63
2023/02/19 07:31:34;;;;;;;10.27;9.23;;;9.10;99.90;;;;;;5051698;28;20588;-63
2023/02/19 07:34:00;;;;;;;12.07;9.27;;;9.20;99.90;;;;;;5051719;28;20175;-63
2023/02/19 07:36:26;;;;;;;11.93;7.87;;;9.20;99.90;;;;;;5051564;28;20250;-63
2023/02/19 07:38:58;;;;;;;8.00;7.40;;;9.20;99.90;;;;;;5052070;28;20222;-63
2023/02/19 07:41:25;;;;;;;10.87;9.93;;;9.20;99.90;;;;;;5050005;28;20254;-63
2023/02/19 07:43:53;;;;;;;8.80;8.20;;;9.20;99.90;;;;;;5051125;28;20171;-63
2023/02/19 07:46:18;;;;;;;12.80;9.47;;;9.20;99.90;;;;;;5050509;28;20274;-62
2023/02/19 07:48:44;;;;;;;10.07;9.17;;;9.30;99.90;;;;;;5075197;22;20230;-63
2023/02/19 07:51:17;;;;;;;19.87;10.03;;;9.30;99.90;;;;;;5051134;28;20170;-63
2023/02/19 07:53:44;;;;;;;10.23;9.43;;;9.30;99.90;;;;;;5051626;28;20158;-65
2023/02/19 07:56:11;;;;;;;10.10;8.57;;;9.20;99.90;;;;;;5051340;28;20175;-63
2023/02/19 07:58:37;;;;;;;10.17;9.27;;;9.20;99.90;;;;;;5051485;28;20186;-63
2023/02/19 08:01:15;;;;;;;9.70;8.77;;;9.20;99.90;;;;;;5051015;28;20171;-63
2023/02/19 08:03:42;;;;;;;8.23;6.87;;;9.20;99.90;;;;;;5051844;28;20262;-63
2023/02/19 08:06:09;;;;;;;8.03;7.33;;;9.20;99.90;;;;;;5051479;28;20214;-63
2023/02/19 08:08:36;;;;;;;10.90;8.80;;;9.20;99.90;;;;;;5051304;28;20190;-63
2023/02/19 08:13:49;;;;;;;9.70;8.67;;;9.20;99.90;;;;;;5051676;28;20177;-65
2023/02/19 08:16:16;;;;;;;10.23;8.87;;;9.20;99.90;;;;;;5051226;28;20178;-64
2023/02/19 08:18:42;;;;;;;9.87;8.60;;;9.30;99.90;;;;;;5051241;28;20571;-64
2023/02/19 08:21:09;;;;;;;10.80;8.17;;;9.30;99.90;;;;;;5050744;28;20186;-64
2023/02/19 08:23:35;;;;;;;13.07;8.90;;;9.30;99.90;;;;;;5051429;28;20185;-63
2023/02/19 08:26:01;;;;;;;7.07;6.40;;;9.30;99.90;;;;;;5051386;28;20592;-63
2023/02/19 08:28:27;;;;;;;8.97;8.20;;;9.40;99.90;;;;;;5051103;28;20607;-63
2023/02/19 08:30:57;;;;;;;11.07;7.50;;;9.40;99.90;;;;;;5051022;28;20174;-64
2023/02/19 08:33:22;;;;;;;10.27;9.23;;;9.40;99.90;;;;;;5050217;28;20644;-64
2023/02/19 08:35:48;;;;;;;10.17;9.13;;;9.50;99.90;;;;;;5049841;28;20186;-64
2023/02/19 08:38:15;;;;;;;9.13;8.20;;;9.60;99.90;;;;;;5050941;28;20295;-64
2023/02/19 08:40:41;;;;;;;7.53;6.93;;;9.80;99.90;;;;;;5051124;28;20206;-65
2023/02/19 08:43:09;;;;;;;8.10;7.10;;;10.10;99.90;;;;;;5050986;28;20580;-64
2023/02/19 08:45:36;;;;;;;8.73;7.77;;;10.30;99.90;;;;;;5050403;28;20230;-64
2023/02/19 08:48:02;;;;;;;10.97;7.80;;;10.30;99.90;;;;;;5050891;28;20211;-64
2023/02/19 08:50:28;;;;;;;8.00;7.30;;;10.30;99.90;;;;;;5050579;28;20632;-64
2023/02/19 08:52:53;;;;;;;7.93;7.37;;;10.40;99.90;;;;;;5050964;28;20178;-63
2023/02/19 08:55:19;;;;;;;14.13;8.93;;;10.40;99.90;;;;;;5054617;28;20628;-64
2023/02/19 08:57:45;;;;;;;20.63;12.13;;;10.40;99.90;;;;;;5054705;28;20261;-64
2023/02/19 09:00:11;;;;;;;8.07;7.50;;;10.50;99.90;;;;;;5054271;28;20787;-64
2023/02/19 09:02:37;;;;;;;9.40;8.57;;;10.50;99.90;;;;;;5054407;28;20175;-64
2023/02/19 09:05:04;;;;;;;22.93;14.50;;;10.60;99.90;;;;;;5052566;28;20493;-64
2023/02/19 09:07:30;;;;;;;9.70;8.70;;;10.60;99.90;;;;;;5054462;28;20187;-64
2023/02/19 09:09:56;;;;;;;8.93;7.70;;;10.70;99.90;;;;;;5053770;28;20174;-64
2023/02/19 09:12:22;;;;;;;10.37;9.27;;;10.70;99.90;;;;;;5054287;28;20581;-64
2023/02/19 09:14:47;;;;;;;11.00;8.13;;;10.80;99.90;;;;;;5054350;28;20257;-64
2023/02/19 09:17:13;;;;;;;6.70;6.07;;;10.90;99.90;;;;;;5054252;28;20639;-64
2023/02/19 09:19:39;;;;;;;12.07;7.00;;;10.80;99.90;;;;;;5053758;28;20333;-64
2023/02/19 09:22:05;;;;;;;7.30;6.67;;;10.70;99.90;;;;;;5054089;28;20233;-64
2023/02/19 09:24:31;;;;;;;8.73;8.10;;;10.70;99.90;;;;;;5054135;28;20628;-64
2023/02/19 09:26:56;;;;;;;8.07;7.23;;;10.70;99.90;;;;;;5054144;28;20230;-64
2023/02/19 09:29:26;;;;;;;8.23;7.57;;;10.80;99.90;;;;;;5054014;28;20209;-64
2023/02/19 09:31:59;;;;;;;7.97;7.47;;;10.90;99.90;;;;;;5054113;28;20198;-64
2023/02/19 09:34:26;;;;;;;8.00;7.20;;;10.90;99.90;;;;;;5051872;28;20256;-64
2023/02/19 09:36:52;;;;;;;9.93;7.30;;;10.90;99.90;;;;;;5041957;28;20710;-65
2023/02/19 09:39:18;;;;;;;7.37;6.77;;;11.10;99.90;;;;;;5049330;28;20187;-65
2023/02/19 09:42:14;;;;;;;7.53;6.67;;;11.20;99.90;;;;;;5049543;28;20250;-64
2023/02/19 09:44:42;;;;;;;6.73;6.23;;;11.20;99.90;;;;;;5034979;28;20195;-64
2023/02/19 09:47:18;;;;;;;10.00;9.43;;;11.00;99.90;;;;;;5049964;28;20217;-64
2023/02/19 09:49:50;;;;;;;6.17;5.87;;;10.70;99.90;;;;;;5049895;28;20261;-64
2023/02/19 09:52:17;;;;;;;13.73;8.13;;;10.50;99.90;;;;;;5037938;28;20228;-64
2023/02/19 09:54:43;;;;;;;13.67;12.80;;;10.40;99.90;;;;;;5045883;28;20233;-65
2023/02/19 09:57:17;;;;;;;9.73;9.13;;;10.50;99.90;;;;;;5044974;28;20663;-65
2023/02/19 09:59:50;;;;;;;9.80;8.27;;;10.60;99.90;;;;;;5036828;28;20179;-65
2023/02/19 10:02:25;;;;;;;14.33;7.73;;;10.70;99.90;;;;;;5041487;28;20528;-64
2023/02/19 10:04:51;;;;;;;8.57;7.90;;;10.80;99.90;;;;;;5032806;28;20189;-64
2023/02/19 10:07:43;;;;;;;7.07;6.63;;;11.10;99.90;;;;;;5033053;28;20199;-64
2023/02/19 10:10:12;;;;;;;8.83;8.33;;;11.30;99.90;;;;;;5024691;28;20187;-64
2023/02/19 10:12:44;;;;;;;8.53;8.03;;;11.30;99.90;;;;;;5034574;28;20168;-64
2023/02/19 10:15:16;;;;;;;8.63;8.23;;;11.20;99.90;;;;;;5051981;28;20644;-64
2023/02/19 10:17:42;;;;;;;7.63;6.67;;;11.10;99.90;;;;;;5048114;28;20253;-64
2023/02/19 10:20:16;;;;;;;8.77;8.20;;;11.00;99.90;;;;;;5041350;28;20189;-64
2023/02/19 10:22:42;;;;;;;10.20;8.17;;;11.00;99.90;;;;;;5036543;28;20186;-64
2023/02/19 10:25:15;;;;;;;6.43;6.03;;;11.00;99.90;;;;;;5044257;28;20237;-64
2023/02/19 10:27:41;;;;;;;13.27;6.50;;;10.90;99.90;;;;;;5044094;28;20733;-64
2023/02/19 10:30:22;;;;;;;7.97;7.40;;;10.70;99.90;;;;;;5041179;28;20183;-64
2023/02/19 10:33:11;;;;;;;8.37;7.57;;;10.50;99.90;;;;;;5046895;28;20209;-64
2023/02/19 10:35:52;;;;;;;10.23;7.10;;;10.50;99.90;;;;;;5040480;28;20191;-64
2023/02/19 10:38:22;;;;;;;7.10;6.60;;;10.60;99.90;;;;;;5045545;28;20676;-64
2023/02/19 10:40:56;;;;;;;7.00;6.40;;;10.70;99.90;;;;;;5040879;28;20570;-64
2023/02/19 10:43:30;;;;;;;5.97;5.47;;;10.80;99.90;;;;;;5042559;28;20183;-64
2023/02/19 10:45:57;;;;;;;7.07;6.47;;;10.80;99.90;;;;;;5042188;28;20203;-62
2023/02/19 10:48:36;;;;;;;8.80;7.20;;;10.70;99.90;;;;;;5044531;28;20211;-64
2023/02/19 10:51:06;;;;;;;7.90;6.57;;;10.60;99.90;;;;;;5044124;28;20269;-64
2023/02/19 10:53:37;;;;;;;7.47;6.80;;;10.50;99.90;;;;;;5044816;28;20175;-64
2023/02/19 10:56:08;;;;;;;8.30;7.37;;;10.50;99.90;;;;;;5048540;28;20265;-64
2023/02/19 10:58:36;;;;;;;7.20;6.70;;;10.70;99.90;;;;;;5042014;28;20218;-64
2023/02/19 11:01:11;;;;;;;8.27;6.83;;;11.00;99.90;;;;;;5034907;28;20185;-64
2023/02/19 11:03:37;;;;;;;6.30;5.80;;;11.30;99.90;;;;;;5046647;28;20182;-64
2023/02/19 11:06:07;;;;;;;8.63;8.13;;;11.50;99.90;;;;;;5043458;28;20297;-65
2023/02/19 11:08:44;;;;;;;18.80;17.53;;;11.60;99.90;;;;;;5040759;28;20241;-64
2023/02/19 11:11:20;;;;;;;6.30;5.90;;;11.80;99.90;;;;;;5041931;28;20197;-63
2023/02/19 11:13:45;;;;;;;7.30;6.77;;;11.90;99.90;;;;;;5037053;28;20233;-63
2023/02/19 11:16:11;;;;;;;7.80;7.27;;;11.80;99.90;;;;;;5040185;28;20186;-64
2023/02/19 11:18:38;;;;;;;15.20;14.30;;;11.80;99.90;;;;;;5036115;28;20249;-64
2023/02/19 11:21:06;;;;;;;10.97;10.20;;;11.70;99.90;;;;;;5036263;28;20186;-64
2023/02/19 11:23:45;;;;;;;9.50;8.93;;;11.60;99.90;;;;;;5036347;28;20644;-64
2023/02/19 11:26:23;;;;;;;12.10;11.50;;;11.50;99.90;;;;;;5045665;28;20295;-64
2023/02/19 11:28:57;;;;;;;6.93;6.43;;;11.30;99.90;;;;;;5040796;28;20203;-64
2023/02/19 11:31:30;;;;;;;6.53;6.17;;;11.10;99.90;;;;;;5043687;28;20186;-64
2023/02/19 11:34:00;;;;;;;8.17;7.77;;;10.90;99.90;;;;;;5034783;28;20194;-64
2023/02/19 11:36:29;;;;;;;7.27;6.77;;;10.70;99.90;;;;;;5038199;28;20195;-63
2023/02/19 11:38:56;;;;;;;7.53;7.00;;;10.60;99.90;;;;;;5041714;28;20210;-63
2023/02/19 11:41:55;;;;;;;8.20;7.60;;;10.60;99.90;;;;;;5044406;28;20194;-64
2023/02/19 11:44:42;;;;;;;7.83;7.03;;;10.70;99.90;;;;;;5021341;28;20285;-64
2023/02/19 11:47:45;;;;;;;9.63;8.73;;;10.90;99.90;;;;;;5043070;28;20304;-64
2023/02/19 11:50:29;;;;;;;6.87;6.47;;;11.20;99.90;;;;;;5038191;28;20182;-63
2023/02/19 11:53:21;;;;;;;6.80;6.20;;;11.30;99.90;;;;;;5042798;28;20579;-63
2023/02/19 11:56:17;;;;;;;6.00;5.60;;;11.40;99.90;;;;;;5043932;28;20518;-64
2023/02/19 11:58:57;;;;;;;6.30;5.70;;;11.50;99.90;;;;;;5035367;28;20207;-64
2023/02/19 12:01:35;;;;;;;7.50;6.80;;;11.50;99.90;;;;;;5045148;28;20197;-63
2023/02/19 12:04:34;;;;;;;7.37;6.83;;;11.60;99.90;;;;;;5039955;28;20256;-65
2023/02/19 12:07:06;;;;;;;6.33;5.93;;;12.10;99.90;;;;;;5041604;28;20244;-64
2023/02/19 12:10:13;;;;;;;6.70;6.20;;;12.50;99.90;;;;;;5045468;28;20186;-64
2023/02/19 12:13:09;;;;;;;7.10;6.70;;;12.80;99.90;;;;;;5038515;28;20179;-64
2023/02/19 12:16:02;;;;;;;8.60;7.07;;;13.10;99.90;;;;;;5041196;28;20539;-64
2023/02/19 12:18:42;;;;;;;7.33;6.73;;;13.00;99.90;;;;;;5041405;28;20657;-64
2023/02/19 12:21:19;;;;;;;5.87;5.30;;;13.50;99.90;;;;;;5040656;28;20186;-64
2023/02/19 12:24:03;;;;;;;5.00;4.60;;;14.60;99.90;;;;;;5043573;28;20192;-64
2023/02/19 12:27:00;;;;;;;4.60;4.40;;;15.20;99.90;;;;;;5041531;28;20216;-64
2023/02/19 12:29:51;;;;;;;5.33;5.03;;;15.30;99.90;;;;;;5041850;28;20596;-64
2023/02/19 12:32:41;;;;;;;5.67;5.27;;;14.90;99.90;;;;;;5041181;28;20561;-64
2023/02/19 12:35:20;;;;;;;5.43;5.17;;;14.40;99.90;;;;;;5042544;28;20179;-64
2023/02/19 12:38:23;;;;;;;6.03;5.33;;;13.90;99.90;;;;;;5045052;28;20594;-64
2023/02/19 12:41:12;;;;;;;5.83;5.10;;;13.60;99.90;;;;;;5044554;28;20270;-65
2023/02/19 12:43:44;;;;;;;5.33;5.13;;;13.20;99.90;;;;;;5048452;28;20198;-63
2023/02/19 12:46:20;;;;;;;5.70;5.27;;;12.80;99.90;;;;;;5045181;28;20203;-64
2023/02/19 12:48:59;;;;;;;8.97;8.27;;;12.50;99.90;;;;;;5038997;28;20234;-64
2023/02/19 12:51:44;;;;;;;9.53;8.67;;;12.30;99.90;;;;;;5047239;28;20179;-64
2023/02/19 12:54:24;;;;;;;5.80;5.50;;;12.00;99.90;;;;;;5043987;28;20187;-64
2023/02/19 12:56:53;;;;;;;6.30;5.70;;;11.70;99.90;;;;;;5045483;28;21535;-64
2023/02/19 12:59:25;;;;;;;8.03;7.37;;;11.60;99.90;;;;;;5047538;28;20195;-64
2023/02/19 13:02:23;;;;;;;7.20;6.70;;;11.70;99.90;;;;;;5049958;28;20243;-64
2023/02/19 13:05:21;;;;;;;9.93;9.20;;;11.90;99.90;;;;;;5047694;28;20694;-64
2023/02/19 13:07:52;;;;;;;6.33;5.83;;;12.00;99.90;;;;;;5037198;28;20219;-64
2023/02/19 13:10:29;;;;;;;7.03;5.40;;;12.00;99.90;;;;;;5037887;28;20576;-64
2023/02/19 13:13:00;;;;;;;8.37;7.67;;;12.00;99.90;;;;;;5044668;28;20182;-64
2023/02/19 13:15:36;;;;;;;6.77;6.47;;;12.10;99.90;;;;;;5044251;28;20901;-64
2023/02/19 13:18:09;;;;;;;5.17;4.67;;;12.00;99.90;;;;;;5039927;28;20207;-65
2023/02/19 13:20:38;;;;;;;6.30;5.30;;;11.90;99.90;;;;;;5047560;28;20195;-64
2023/02/19 13:26:34;;;;;;;6.00;5.50;;;11.80;99.90;;;;;;5041875;28;20218;-64
2023/02/19 13:29:42;;;;;;;5.23;4.93;;;11.90;99.90;;;;;;5039527;28;20721;-64
2023/02/19 13:32:44;;;;;;;6.07;5.50;;;12.00;99.90;;;;;;5042290;28;20172;-64